sensor_id;sensor_type;location;lat;lon;timestamp;P1;durP1;ratioP1;P2;durP2;ratioP2
48375;SDS011;34178;50.904;11.560;2022-12-07T00:01:36;11.20;;;6.28;;
48375;SDS011;34178;50.904;11.560;2022-12-07T00:04:06;12.82;;;6.72;;
48375;SDS011;34178;50.904;11.560;2022-12-07T00:06:33;15.32;;;6.60;;
48375;SDS011;34178;50.904;11.560;2022-12-07T00:09:00;12.32;;;6.20;;
48375;SDS011;34178;50.904;11.560;2022-12-07T00:11:26;12.68;;;6.13;;
48375;SDS011;34178;50.904;11.560;2022-12-07T00:13:53;13.27;;;5.78;;
48375;SDS011;34178;50.904;11.560;2022-12-07T00:16:21;12.07;;;5.70;;
48375;SDS011;34178;50.904;11.560;2022-12-07T00:18:48;10.75;;;5.43;;
48375;SDS011;34178;50.904;11.560;2022-12-07T00:21:18;12.90;;;5.57;;
48375;SDS011;34178;50.904;11.560;2022-12-07T00:23:47;12.38;;;5.68;;
48375;SDS011;34178;50.904;11.560;2022-12-07T00:26:24;10.95;;;5.55;;
48375;SDS011;34178;50.904;11.560;2022-12-07T00:28:50;11.98;;;6.15;;
48375;SDS011;34178;50.904;11.560;2022-12-07T00:31:18;12.20;;;6.13;;
48375;SDS011;34178;50.904;11.560;2022-12-07T00:33:45;12.95;;;5.57;;
48375;SDS011;34178;50.904;11.560;2022-12-07T00:36:12;14.63;;;7.32;;
48375;SDS011;34178;50.904;11.560;2022-12-07T00:38:40;13.68;;;6.00;;
48375;SDS011;34178;50.904;11.560;2022-12-07T00:43:42;14.30;;;5.55;;
48375;SDS011;34178;50.904;11.560;2022-12-07T00:46:09;12.55;;;5.72;;
48375;SDS011;34178;50.904;11.560;2022-12-07T00:48:36;14.90;;;6.72;;
48375;SDS011;34178;50.904;11.560;2022-12-07T00:51:02;12.80;;;6.50;;
48375;SDS011;34178;50.904;11.560;2022-12-07T00:53:28;12.90;;;6.20;;
48375;SDS011;34178;50.904;11.560;2022-12-07T00:55:54;14.23;;;6.93;;
48375;SDS011;34178;50.904;11.560;2022-12-07T00:58:21;11.73;;;4.95;;
48375;SDS011;34178;50.904;11.560;2022-12-07T01:00:47;12.40;;;4.45;;
48375;SDS011;34178;50.904;11.560;2022-12-07T01:03:14;10.40;;;4.90;;
48375;SDS011;34178;50.904;11.560;2022-12-07T01:05:40;11.45;;;5.28;;
48375;SDS011;34178;50.904;11.560;2022-12-07T01:08:18;11.30;;;5.15;;
48375;SDS011;34178;50.904;11.560;2022-12-07T01:10:44;10.18;;;4.57;;
48375;SDS011;34178;50.904;11.560;2022-12-07T01:13:09;10.30;;;4.93;;
48375;SDS011;34178;50.904;11.560;2022-12-07T01:15:38;10.48;;;4.65;;
48375;SDS011;34178;50.904;11.560;2022-12-07T01:18:08;9.27;;;4.38;;
48375;SDS011;34178;50.904;11.560;2022-12-07T01:20:34;11.13;;;4.25;;
48375;SDS011;34178;50.904;11.560;2022-12-07T01:23:01;10.30;;;4.90;;
48375;SDS011;34178;50.904;11.560;2022-12-07T01:25:27;10.65;;;5.20;;
48375;SDS011;34178;50.904;11.560;2022-12-07T01:27:52;8.93;;;4.85;;
48375;SDS011;34178;50.904;11.560;2022-12-07T01:30:18;10.23;;;5.10;;
48375;SDS011;34178;50.904;11.560;2022-12-07T01:32:44;11.57;;;4.70;;
48375;SDS011;34178;50.904;11.560;2022-12-07T01:35:09;9.98;;;3.95;;
48375;SDS011;34178;50.904;11.560;2022-12-07T01:37:36;10.10;;;4.72;;
48375;SDS011;34178;50.904;11.560;2022-12-07T01:40:03;9.30;;;4.75;;
48375;SDS011;34178;50.904;11.560;2022-12-07T01:42:30;11.95;;;5.28;;
48375;SDS011;34178;50.904;11.560;2022-12-07T01:47:44;9.48;;;4.13;;
48375;SDS011;34178;50.904;11.560;2022-12-07T01:50:13;7.97;;;3.83;;
48375;SDS011;34178;50.904;11.560;2022-12-07T01:52:40;9.00;;;4.25;;
48375;SDS011;34178;50.904;11.560;2022-12-07T01:55:11;11.70;;;4.90;;
48375;SDS011;34178;50.904;11.560;2022-12-07T01:57:41;10.70;;;4.32;;
48375;SDS011;34178;50.904;11.560;2022-12-07T02:00:10;9.68;;;4.32;;
48375;SDS011;34178;50.904;11.560;2022-12-07T02:02:37;9.70;;;4.15;;
48375;SDS011;34178;50.904;11.560;2022-12-07T02:05:09;9.65;;;4.25;;
48375;SDS011;34178;50.904;11.560;2022-12-07T02:07:36;9.30;;;4.40;;
48375;SDS011;34178;50.904;11.560;2022-12-07T02:10:13;9.18;;;4.10;;
48375;SDS011;34178;50.904;11.560;2022-12-07T02:12:43;8.07;;;3.97;;
48375;SDS011;34178;50.904;11.560;2022-12-07T02:15:11;9.88;;;4.30;;
48375;SDS011;34178;50.904;11.560;2022-12-07T02:18:01;12.45;;;4.18;;
48375;SDS011;34178;50.904;11.560;2022-12-07T02:20:37;8.38;;;4.28;;
48375;SDS011;34178;50.904;11.560;2022-12-07T02:31:43;7.55;;;3.78;;
48375;SDS011;34178;50.904;11.560;2022-12-07T02:34:26;7.50;;;3.78;;
48375;SDS011;34178;50.904;11.560;2022-12-07T02:39:59;7.90;;;4.13;;
48375;SDS011;34178;50.904;11.560;2022-12-07T02:42:36;8.40;;;4.10;;
48375;SDS011;34178;50.904;11.560;2022-12-07T02:45:07;8.93;;;4.03;;
48375;SDS011;34178;50.904;11.560;2022-12-07T02:47:35;9.07;;;4.32;;
48375;SDS011;34178;50.904;11.560;2022-12-07T02:50:03;10.60;;;4.82;;
48375;SDS011;34178;50.904;11.560;2022-12-07T02:52:30;10.50;;;4.85;;
48375;SDS011;34178;50.904;11.560;2022-12-07T02:54:55;10.23;;;5.22;;
48375;SDS011;34178;50.904;11.560;2022-12-07T03:07:42;11.52;;;4.85;;
48375;SDS011;34178;50.904;11.560;2022-12-07T03:18:28;13.20;;;5.95;;
48375;SDS011;34178;50.904;11.560;2022-12-07T03:20:58;12.85;;;6.10;;
48375;SDS011;34178;50.904;11.560;2022-12-07T03:23:27;13.60;;;6.55;;
48375;SDS011;34178;50.904;11.560;2022-12-07T03:25:57;15.27;;;6.18;;
48375;SDS011;34178;50.904;11.560;2022-12-07T03:28:26;8.98;;;5.00;;
48375;SDS011;34178;50.904;11.560;2022-12-07T03:31:03;11.75;;;4.80;;
48375;SDS011;34178;50.904;11.560;2022-12-07T03:33:41;9.35;;;4.43;;
48375;SDS011;34178;50.904;11.560;2022-12-07T03:36:17;8.88;;;4.22;;
48375;SDS011;34178;50.904;11.560;2022-12-07T03:41:36;9.90;;;6.40;;
48375;SDS011;34178;50.904;11.560;2022-12-07T03:44:04;9.88;;;5.30;;
48375;SDS011;34178;50.904;11.560;2022-12-07T03:46:34;9.23;;;4.75;;
48375;SDS011;34178;50.904;11.560;2022-12-07T03:55:08;10.35;;;5.55;;
48375;SDS011;34178;50.904;11.560;2022-12-07T03:57:30;13.18;;;5.55;;
48375;SDS011;34178;50.904;11.560;2022-12-07T03:59:58;9.68;;;5.03;;
48375;SDS011;34178;50.904;11.560;2022-12-07T04:02:25;9.70;;;5.28;;
48375;SDS011;34178;50.904;11.560;2022-12-07T04:04:53;10.25;;;5.15;;
48375;SDS011;34178;50.904;11.560;2022-12-07T04:07:20;10.90;;;5.38;;
48375;SDS011;34178;50.904;11.560;2022-12-07T04:09:45;10.90;;;5.72;;
48375;SDS011;34178;50.904;11.560;2022-12-07T04:12:11;10.65;;;6.03;;
48375;SDS011;34178;50.904;11.560;2022-12-07T04:14:37;12.77;;;5.80;;
48375;SDS011;34178;50.904;11.560;2022-12-07T04:17:03;11.38;;;5.68;;
48375;SDS011;34178;50.904;11.560;2022-12-07T04:19:30;11.25;;;6.05;;
48375;SDS011;34178;50.904;11.560;2022-12-07T04:21:58;13.13;;;6.82;;
48375;SDS011;34178;50.904;11.560;2022-12-07T04:24:25;12.95;;;6.60;;
48375;SDS011;34178;50.904;11.560;2022-12-07T04:26:51;14.35;;;7.10;;
48375;SDS011;34178;50.904;11.560;2022-12-07T04:29:17;13.05;;;6.93;;
48375;SDS011;34178;50.904;11.560;2022-12-07T04:31:44;13.68;;;6.80;;
48375;SDS011;34178;50.904;11.560;2022-12-07T04:34:10;12.30;;;6.68;;
48375;SDS011;34178;50.904;11.560;2022-12-07T04:36:37;12.75;;;6.53;;
48375;SDS011;34178;50.904;11.560;2022-12-07T04:39:04;11.85;;;6.78;;
48375;SDS011;34178;50.904;11.560;2022-12-07T04:41:30;13.93;;;7.35;;
48375;SDS011;34178;50.904;11.560;2022-12-07T04:43:57;15.32;;;6.10;;
48375;SDS011;34178;50.904;11.560;2022-12-07T04:46:26;11.63;;;6.10;;
48375;SDS011;34178;50.904;11.560;2022-12-07T04:48:53;13.65;;;7.13;;
48375;SDS011;34178;50.904;11.560;2022-12-07T04:51:21;11.07;;;5.65;;
48375;SDS011;34178;50.904;11.560;2022-12-07T04:53:48;11.68;;;6.63;;
48375;SDS011;34178;50.904;11.560;2022-12-07T04:56:14;12.23;;;6.72;;
48375;SDS011;34178;50.904;11.560;2022-12-07T04:58:41;12.60;;;6.47;;
48375;SDS011;34178;50.904;11.560;2022-12-07T05:01:07;11.23;;;6.15;;
48375;SDS011;34178;50.904;11.560;2022-12-07T05:03:33;12.32;;;6.22;;
48375;SDS011;34178;50.904;11.560;2022-12-07T05:06:00;12.32;;;6.63;;
48375;SDS011;34178;50.904;11.560;2022-12-07T05:08:26;12.00;;;6.07;;
48375;SDS011;34178;50.904;11.560;2022-12-07T05:10:51;11.57;;;6.25;;
48375;SDS011;34178;50.904;11.560;2022-12-07T05:13:17;14.27;;;7.35;;
48375;SDS011;34178;50.904;11.560;2022-12-07T05:15:42;13.48;;;6.60;;
48375;SDS011;34178;50.904;11.560;2022-12-07T05:18:09;12.52;;;6.72;;
48375;SDS011;34178;50.904;11.560;2022-12-07T05:20:37;13.75;;;7.15;;
48375;SDS011;34178;50.904;11.560;2022-12-07T05:23:07;14.45;;;7.97;;
48375;SDS011;34178;50.904;11.560;2022-12-07T05:25:32;13.18;;;6.78;;
48375;SDS011;34178;50.904;11.560;2022-12-07T05:27:58;14.95;;;7.57;;
48375;SDS011;34178;50.904;11.560;2022-12-07T05:30:24;12.43;;;7.03;;
48375;SDS011;34178;50.904;11.560;2022-12-07T05:32:51;12.77;;;6.75;;
48375;SDS011;34178;50.904;11.560;2022-12-07T05:35:17;13.50;;;7.00;;
48375;SDS011;34178;50.904;11.560;2022-12-07T05:37:43;14.48;;;7.32;;
48375;SDS011;34178;50.904;11.560;2022-12-07T05:40:09;14.73;;;7.35;;
48375;SDS011;34178;50.904;11.560;2022-12-07T05:42:36;16.83;;;7.97;;
48375;SDS011;34178;50.904;11.560;2022-12-07T05:45:02;15.93;;;7.47;;
48375;SDS011;34178;50.904;11.560;2022-12-07T05:47:28;14.05;;;7.57;;
48375;SDS011;34178;50.904;11.560;2022-12-07T05:49:54;16.75;;;8.43;;
48375;SDS011;34178;50.904;11.560;2022-12-07T05:52:20;16.17;;;9.30;;
48375;SDS011;34178;50.904;11.560;2022-12-07T05:54:45;14.95;;;8.07;;
48375;SDS011;34178;50.904;11.560;2022-12-07T05:57:11;14.50;;;8.18;;
48375;SDS011;34178;50.904;11.560;2022-12-07T05:59:37;13.98;;;7.82;;
48375;SDS011;34178;50.904;11.560;2022-12-07T06:02:04;15.38;;;8.65;;
48375;SDS011;34178;50.904;11.560;2022-12-07T06:04:33;15.40;;;8.15;;
48375;SDS011;34178;50.904;11.560;2022-12-07T06:07:04;16.27;;;8.38;;
48375;SDS011;34178;50.904;11.560;2022-12-07T06:09:30;56.15;;;20.98;;
48375;SDS011;34178;50.904;11.560;2022-12-07T06:11:57;18.60;;;8.90;;
48375;SDS011;34178;50.904;11.560;2022-12-07T06:14:42;15.57;;;8.40;;
48375;SDS011;34178;50.904;11.560;2022-12-07T06:17:08;18.70;;;11.07;;
48375;SDS011;34178;50.904;11.560;2022-12-07T06:19:34;16.02;;;7.93;;
48375;SDS011;34178;50.904;11.560;2022-12-07T06:22:01;14.88;;;7.78;;
48375;SDS011;34178;50.904;11.560;2022-12-07T06:24:27;13.70;;;8.00;;
48375;SDS011;34178;50.904;11.560;2022-12-07T06:26:53;15.50;;;8.30;;
48375;SDS011;34178;50.904;11.560;2022-12-07T06:29:19;16.52;;;9.25;;
48375;SDS011;34178;50.904;11.560;2022-12-07T06:31:45;14.98;;;8.55;;
48375;SDS011;34178;50.904;11.560;2022-12-07T06:34:12;16.42;;;9.80;;
48375;SDS011;34178;50.904;11.560;2022-12-07T06:36:39;17.35;;;9.55;;
48375;SDS011;34178;50.904;11.560;2022-12-07T06:39:06;16.60;;;9.75;;
48375;SDS011;34178;50.904;11.560;2022-12-07T06:41:34;20.40;;;10.68;;
48375;SDS011;34178;50.904;11.560;2022-12-07T06:44:01;16.58;;;9.13;;
48375;SDS011;34178;50.904;11.560;2022-12-07T06:46:27;19.42;;;10.07;;
48375;SDS011;34178;50.904;11.560;2022-12-07T06:48:53;19.33;;;11.38;;
48375;SDS011;34178;50.904;11.560;2022-12-07T06:51:19;16.10;;;9.35;;
48375;SDS011;34178;50.904;11.560;2022-12-07T06:53:45;16.48;;;9.80;;
48375;SDS011;34178;50.904;11.560;2022-12-07T06:56:10;15.88;;;8.60;;
48375;SDS011;34178;50.904;11.560;2022-12-07T06:58:36;18.10;;;9.82;;
48375;SDS011;34178;50.904;11.560;2022-12-07T07:01:02;17.77;;;10.18;;
48375;SDS011;34178;50.904;11.560;2022-12-07T07:03:28;15.95;;;9.32;;
48375;SDS011;34178;50.904;11.560;2022-12-07T07:05:54;25.58;;;13.25;;
48375;SDS011;34178;50.904;11.560;2022-12-07T07:08:19;21.05;;;11.30;;
48375;SDS011;34178;50.904;11.560;2022-12-07T07:10:45;16.67;;;9.07;;
48375;SDS011;34178;50.904;11.560;2022-12-07T07:13:10;17.45;;;9.88;;
48375;SDS011;34178;50.904;11.560;2022-12-07T07:15:37;17.92;;;10.38;;
48375;SDS011;34178;50.904;11.560;2022-12-07T07:18:03;19.67;;;10.27;;
48375;SDS011;34178;50.904;11.560;2022-12-07T07:20:29;18.13;;;9.15;;
48375;SDS011;34178;50.904;11.560;2022-12-07T07:22:55;20.08;;;10.73;;
48375;SDS011;34178;50.904;11.560;2022-12-07T07:25:21;17.08;;;9.15;;
48375;SDS011;34178;50.904;11.560;2022-12-07T07:27:47;15.63;;;8.60;;
48375;SDS011;34178;50.904;11.560;2022-12-07T07:30:12;17.73;;;8.98;;
48375;SDS011;34178;50.904;11.560;2022-12-07T07:32:38;17.80;;;9.88;;
48375;SDS011;34178;50.904;11.560;2022-12-07T07:35:05;14.65;;;7.57;;
48375;SDS011;34178;50.904;11.560;2022-12-07T07:37:31;15.10;;;8.10;;
48375;SDS011;34178;50.904;11.560;2022-12-07T07:39:56;17.05;;;8.07;;
48375;SDS011;34178;50.904;11.560;2022-12-07T07:42:22;15.73;;;7.82;;
48375;SDS011;34178;50.904;11.560;2022-12-07T07:44:48;15.07;;;8.93;;
48375;SDS011;34178;50.904;11.560;2022-12-07T07:47:13;17.73;;;8.35;;
48375;SDS011;34178;50.904;11.560;2022-12-07T07:49:39;15.02;;;8.57;;
48375;SDS011;34178;50.904;11.560;2022-12-07T07:52:05;15.13;;;7.97;;
48375;SDS011;34178;50.904;11.560;2022-12-07T07:54:31;15.27;;;8.63;;
48375;SDS011;34178;50.904;11.560;2022-12-07T07:56:57;19.83;;;9.15;;
48375;SDS011;34178;50.904;11.560;2022-12-07T07:59:23;15.65;;;8.38;;
48375;SDS011;34178;50.904;11.560;2022-12-07T08:01:49;17.02;;;9.05;;
48375;SDS011;34178;50.904;11.560;2022-12-07T08:04:15;17.70;;;8.98;;
48375;SDS011;34178;50.904;11.560;2022-12-07T08:06:41;16.45;;;8.88;;
48375;SDS011;34178;50.904;11.560;2022-12-07T08:09:07;18.20;;;10.38;;
48375;SDS011;34178;50.904;11.560;2022-12-07T08:11:34;19.13;;;10.30;;
48375;SDS011;34178;50.904;11.560;2022-12-07T08:14:00;18.83;;;10.05;;
48375;SDS011;34178;50.904;11.560;2022-12-07T08:16:25;23.98;;;10.20;;
48375;SDS011;34178;50.904;11.560;2022-12-07T08:18:51;28.45;;;11.23;;
48375;SDS011;34178;50.904;11.560;2022-12-07T08:21:17;16.92;;;9.85;;
48375;SDS011;34178;50.904;11.560;2022-12-07T08:23:43;17.05;;;8.95;;
48375;SDS011;34178;50.904;11.560;2022-12-07T08:26:10;17.70;;;8.95;;
48375;SDS011;34178;50.904;11.560;2022-12-07T08:28:37;15.20;;;8.48;;
48375;SDS011;34178;50.904;11.560;2022-12-07T08:31:04;14.57;;;8.48;;
48375;SDS011;34178;50.904;11.560;2022-12-07T08:33:36;16.25;;;9.35;;
48375;SDS011;34178;50.904;11.560;2022-12-07T08:36:11;17.98;;;9.05;;
48375;SDS011;34178;50.904;11.560;2022-12-07T08:38:38;16.17;;;8.75;;
48375;SDS011;34178;50.904;11.560;2022-12-07T08:41:05;15.82;;;9.13;;
48375;SDS011;34178;50.904;11.560;2022-12-07T08:43:31;15.95;;;7.75;;
48375;SDS011;34178;50.904;11.560;2022-12-07T08:48:50;19.08;;;8.90;;
48375;SDS011;34178;50.904;11.560;2022-12-07T08:51:20;16.60;;;8.27;;
48375;SDS011;34178;50.904;11.560;2022-12-07T08:53:47;16.63;;;8.45;;
48375;SDS011;34178;50.904;11.560;2022-12-07T08:56:14;16.73;;;8.90;;
48375;SDS011;34178;50.904;11.560;2022-12-07T08:58:41;14.10;;;7.55;;
48375;SDS011;34178;50.904;11.560;2022-12-07T09:01:07;15.02;;;7.65;;
48375;SDS011;34178;50.904;11.560;2022-12-07T09:03:33;15.30;;;8.27;;
48375;SDS011;34178;50.904;11.560;2022-12-07T09:05:58;13.63;;;7.22;;
48375;SDS011;34178;50.904;11.560;2022-12-07T09:08:26;13.88;;;7.57;;
48375;SDS011;34178;50.904;11.560;2022-12-07T09:10:56;13.85;;;6.95;;
48375;SDS011;34178;50.904;11.560;2022-12-07T09:13:22;14.13;;;6.43;;
48375;SDS011;34178;50.904;11.560;2022-12-07T09:15:47;13.18;;;6.60;;
48375;SDS011;34178;50.904;11.560;2022-12-07T09:18:13;12.05;;;6.30;;
48375;SDS011;34178;50.904;11.560;2022-12-07T09:20:39;15.82;;;7.25;;
48375;SDS011;34178;50.904;11.560;2022-12-07T09:23:05;14.73;;;6.80;;
48375;SDS011;34178;50.904;11.560;2022-12-07T09:25:32;12.55;;;6.45;;
48375;SDS011;34178;50.904;11.560;2022-12-07T09:27:58;13.18;;;6.22;;
48375;SDS011;34178;50.904;11.560;2022-12-07T09:30:24;14.82;;;7.53;;
48375;SDS011;34178;50.904;11.560;2022-12-07T09:32:52;10.02;;;5.47;;
48375;SDS011;34178;50.904;11.560;2022-12-07T09:35:22;13.00;;;6.63;;
48375;SDS011;34178;50.904;11.560;2022-12-07T09:37:49;12.55;;;5.53;;
48375;SDS011;34178;50.904;11.560;2022-12-07T09:40:15;15.10;;;6.13;;
48375;SDS011;34178;50.904;11.560;2022-12-07T09:42:43;12.00;;;5.97;;
48375;SDS011;34178;50.904;11.560;2022-12-07T09:45:19;13.02;;;5.57;;
48375;SDS011;34178;50.904;11.560;2022-12-07T09:47:52;11.77;;;5.70;;
48375;SDS011;34178;50.904;11.560;2022-12-07T09:50:19;12.23;;;5.22;;
48375;SDS011;34178;50.904;11.560;2022-12-07T09:52:51;10.35;;;4.18;;
48375;SDS011;34178;50.904;11.560;2022-12-07T09:55:29;10.95;;;4.75;;
48375;SDS011;34178;50.904;11.560;2022-12-07T09:57:55;11.05;;;5.30;;
48375;SDS011;34178;50.904;11.560;2022-12-07T10:00:23;9.05;;;4.63;;
48375;SDS011;34178;50.904;11.560;2022-12-07T10:02:57;11.23;;;4.00;;
48375;SDS011;34178;50.904;11.560;2022-12-07T10:05:25;9.43;;;3.80;;
48375;SDS011;34178;50.904;11.560;2022-12-07T10:08:00;8.80;;;4.00;;
48375;SDS011;34178;50.904;11.560;2022-12-07T10:10:28;7.65;;;3.97;;
48375;SDS011;34178;50.904;11.560;2022-12-07T10:13:03;7.10;;;3.22;;
48375;SDS011;34178;50.904;11.560;2022-12-07T10:18:31;9.80;;;3.28;;
48375;SDS011;34178;50.904;11.560;2022-12-07T10:23:41;8.20;;;2.70;;
48375;SDS011;34178;50.904;11.560;2022-12-07T10:29:28;11.73;;;3.50;;
48375;SDS011;34178;50.904;11.560;2022-12-07T10:32:00;10.20;;;2.95;;
48375;SDS011;34178;50.904;11.560;2022-12-07T10:34:51;9.02;;;3.05;;
48375;SDS011;34178;50.904;11.560;2022-12-07T10:37:43;6.68;;;3.20;;
48375;SDS011;34178;50.904;11.560;2022-12-07T10:43:17;5.50;;;2.67;;
48375;SDS011;34178;50.904;11.560;2022-12-07T10:57:24;9.27;;;2.75;;
48375;SDS011;34178;50.904;11.560;2022-12-07T11:02:23;6.13;;;2.83;;
48375;SDS011;34178;50.904;11.560;2022-12-07T11:13:22;7.18;;;3.00;;
48375;SDS011;34178;50.904;11.560;2022-12-07T11:18:26;5.07;;;2.10;;
48375;SDS011;34178;50.904;11.560;2022-12-07T11:29:17;6.32;;;2.70;;
48375;SDS011;34178;50.904;11.560;2022-12-07T11:32:12;6.57;;;2.28;;
48375;SDS011;34178;50.904;11.560;2022-12-07T11:34:56;9.45;;;2.58;;
48375;SDS011;34178;50.904;11.560;2022-12-07T11:37:33;6.82;;;2.20;;
48375;SDS011;34178;50.904;11.560;2022-12-07T11:40:03;8.87;;;2.17;;
48375;SDS011;34178;50.904;11.560;2022-12-07T11:42:39;6.00;;;2.15;;
48375;SDS011;34178;50.904;11.560;2022-12-07T11:47:47;7.57;;;2.70;;
48375;SDS011;34178;50.904;11.560;2022-12-07T11:55:42;7.43;;;2.75;;
48375;SDS011;34178;50.904;11.560;2022-12-07T12:00:55;7.50;;;2.40;;
48375;SDS011;34178;50.904;11.560;2022-12-07T12:03:33;6.63;;;2.45;;
48375;SDS011;34178;50.904;11.560;2022-12-07T12:06:02;6.15;;;2.38;;
48375;SDS011;34178;50.904;11.560;2022-12-07T12:08:33;8.10;;;2.00;;
48375;SDS011;34178;50.904;11.560;2022-12-07T12:14:05;6.40;;;1.80;;
48375;SDS011;34178;50.904;11.560;2022-12-07T12:22:05;5.13;;;1.83;;
48375;SDS011;34178;50.904;11.560;2022-12-07T12:24:39;4.85;;;2.30;;
48375;SDS011;34178;50.904;11.560;2022-12-07T12:27:07;4.60;;;2.00;;
48375;SDS011;34178;50.904;11.560;2022-12-07T12:29:40;6.20;;;1.92;;
48375;SDS011;34178;50.904;11.560;2022-12-07T12:37:45;13.93;;;4.63;;
48375;SDS011;34178;50.904;11.560;2022-12-07T12:42:44;7.25;;;2.00;;
48375;SDS011;34178;50.904;11.560;2022-12-07T12:48:03;7.25;;;1.90;;
48375;SDS011;34178;50.904;11.560;2022-12-07T12:50:36;7.22;;;1.60;;
48375;SDS011;34178;50.904;11.560;2022-12-07T12:56:03;6.65;;;1.77;;
48375;SDS011;34178;50.904;11.560;2022-12-07T13:10:53;4.50;;;1.50;;
48375;SDS011;34178;50.904;11.560;2022-12-07T13:15:40;5.80;;;1.52;;
48375;SDS011;34178;50.904;11.560;2022-12-07T13:20:52;6.72;;;2.67;;
48375;SDS011;34178;50.904;11.560;2022-12-07T13:23:26;10.15;;;3.15;;
48375;SDS011;34178;50.904;11.560;2022-12-07T13:25:54;6.40;;;2.53;;
48375;SDS011;34178;50.904;11.560;2022-12-07T13:28:43;8.23;;;2.78;;
48375;SDS011;34178;50.904;11.560;2022-12-07T13:31:45;9.32;;;3.15;;
48375;SDS011;34178;50.904;11.560;2022-12-07T13:37:00;8.32;;;2.13;;
48375;SDS011;34178;50.904;11.560;2022-12-07T13:39:51;8.23;;;2.95;;
48375;SDS011;34178;50.904;11.560;2022-12-07T13:42:32;10.00;;;3.03;;
48375;SDS011;34178;50.904;11.560;2022-12-07T13:47:41;4.65;;;2.30;;
48375;SDS011;34178;50.904;11.560;2022-12-07T13:50:24;7.80;;;2.75;;
48375;SDS011;34178;50.904;11.560;2022-12-07T13:52:57;8.82;;;4.60;;
48375;SDS011;34178;50.904;11.560;2022-12-07T13:55:25;11.80;;;3.67;;
48375;SDS011;34178;50.904;11.560;2022-12-07T13:57:52;7.18;;;3.72;;
48375;SDS011;34178;50.904;11.560;2022-12-07T14:00:19;7.68;;;3.53;;
48375;SDS011;34178;50.904;11.560;2022-12-07T14:03:23;8.73;;;3.95;;
48375;SDS011;34178;50.904;11.560;2022-12-07T14:05:42;5.43;;;2.58;;
48375;SDS011;34178;50.904;11.560;2022-12-07T14:10:52;7.00;;;2.97;;
48375;SDS011;34178;50.904;11.560;2022-12-07T14:13:37;7.85;;;3.92;;
48375;SDS011;34178;50.904;11.560;2022-12-07T14:16:28;13.75;;;4.60;;
48375;SDS011;34178;50.904;11.560;2022-12-07T14:18:56;7.10;;;2.80;;
48375;SDS011;34178;50.904;11.560;2022-12-07T14:21:25;8.07;;;2.75;;
48375;SDS011;34178;50.904;11.560;2022-12-07T14:26:39;9.98;;;5.38;;
48375;SDS011;34178;50.904;11.560;2022-12-07T14:29:21;7.38;;;4.47;;
48375;SDS011;34178;50.904;11.560;2022-12-07T14:31:51;16.25;;;11.23;;
48375;SDS011;34178;50.904;11.560;2022-12-07T14:34:21;11.73;;;6.20;;
48375;SDS011;34178;50.904;11.560;2022-12-07T14:36:47;16.30;;;6.20;;
48375;SDS011;34178;50.904;11.560;2022-12-07T14:39:13;15.68;;;8.10;;
48375;SDS011;34178;50.904;11.560;2022-12-07T14:41:39;16.10;;;6.40;;
48375;SDS011;34178;50.904;11.560;2022-12-07T14:44:17;13.38;;;7.45;;
48375;SDS011;34178;50.904;11.560;2022-12-07T14:46:44;13.73;;;4.80;;
48375;SDS011;34178;50.904;11.560;2022-12-07T14:49:10;11.40;;;4.18;;
48375;SDS011;34178;50.904;11.560;2022-12-07T14:51:36;9.15;;;3.78;;
48375;SDS011;34178;50.904;11.560;2022-12-07T14:54:05;9.38;;;4.40;;
48375;SDS011;34178;50.904;11.560;2022-12-07T14:56:34;7.38;;;3.75;;
48375;SDS011;34178;50.904;11.560;2022-12-07T14:59:00;7.45;;;3.20;;
48375;SDS011;34178;50.904;11.560;2022-12-07T15:01:25;7.75;;;3.60;;
48375;SDS011;34178;50.904;11.560;2022-12-07T15:03:51;8.77;;;3.97;;
48375;SDS011;34178;50.904;11.560;2022-12-07T15:06:17;12.80;;;4.95;;
48375;SDS011;34178;50.904;11.560;2022-12-07T15:08:43;11.88;;;5.00;;
48375;SDS011;34178;50.904;11.560;2022-12-07T15:11:11;18.40;;;7.22;;
48375;SDS011;34178;50.904;11.560;2022-12-07T15:13:38;11.48;;;5.50;;
48375;SDS011;34178;50.904;11.560;2022-12-07T15:16:23;11.70;;;5.75;;
48375;SDS011;34178;50.904;11.560;2022-12-07T15:18:48;12.98;;;4.10;;
48375;SDS011;34178;50.904;11.560;2022-12-07T15:21:14;13.85;;;4.82;;
48375;SDS011;34178;50.904;11.560;2022-12-07T15:23:41;8.68;;;4.53;;
48375;SDS011;34178;50.904;11.560;2022-12-07T15:26:07;11.00;;;4.22;;
48375;SDS011;34178;50.904;11.560;2022-12-07T15:28:35;11.57;;;4.80;;
48375;SDS011;34178;50.904;11.560;2022-12-07T15:31:00;12.20;;;4.72;;
48375;SDS011;34178;50.904;11.560;2022-12-07T15:33:26;11.57;;;3.85;;
48375;SDS011;34178;50.904;11.560;2022-12-07T15:35:52;12.95;;;4.50;;
48375;SDS011;34178;50.904;11.560;2022-12-07T15:38:17;10.40;;;4.07;;
48375;SDS011;34178;50.904;11.560;2022-12-07T15:40:46;11.48;;;3.80;;
48375;SDS011;34178;50.904;11.560;2022-12-07T15:43:12;7.65;;;3.47;;
48375;SDS011;34178;50.904;11.560;2022-12-07T15:45:56;9.25;;;3.70;;
48375;SDS011;34178;50.904;11.560;2022-12-07T15:48:21;8.85;;;3.90;;
48375;SDS011;34178;50.904;11.560;2022-12-07T15:50:47;9.30;;;4.13;;
48375;SDS011;34178;50.904;11.560;2022-12-07T15:53:13;9.63;;;3.58;;
48375;SDS011;34178;50.904;11.560;2022-12-07T15:55:39;24.08;;;12.65;;
48375;SDS011;34178;50.904;11.560;2022-12-07T15:58:05;14.82;;;8.45;;
48375;SDS011;34178;50.904;11.560;2022-12-07T16:00:31;18.83;;;8.70;;
48375;SDS011;34178;50.904;11.560;2022-12-07T16:02:57;15.95;;;7.78;;
48375;SDS011;34178;50.904;11.560;2022-12-07T16:05:23;14.40;;;7.95;;
48375;SDS011;34178;50.904;11.560;2022-12-07T16:07:49;18.02;;;9.77;;
48375;SDS011;34178;50.904;11.560;2022-12-07T16:10:14;18.67;;;7.80;;
48375;SDS011;34178;50.904;11.560;2022-12-07T16:12:40;18.48;;;10.18;;
48375;SDS011;34178;50.904;11.560;2022-12-07T16:15:06;29.80;;;14.50;;
48375;SDS011;34178;50.904;11.560;2022-12-07T16:17:32;27.38;;;12.80;;
48375;SDS011;34178;50.904;11.560;2022-12-07T16:19:58;33.22;;;15.50;;
48375;SDS011;34178;50.904;11.560;2022-12-07T16:22:23;42.13;;;18.02;;
48375;SDS011;34178;50.904;11.560;2022-12-07T16:24:49;38.03;;;17.95;;
48375;SDS011;34178;50.904;11.560;2022-12-07T16:27:15;40.75;;;17.75;;
48375;SDS011;34178;50.904;11.560;2022-12-07T16:29:41;58.65;;;21.13;;
48375;SDS011;34178;50.904;11.560;2022-12-07T16:32:06;67.10;;;22.88;;
48375;SDS011;34178;50.904;11.560;2022-12-07T16:34:32;47.78;;;19.90;;
48375;SDS011;34178;50.904;11.560;2022-12-07T16:36:58;56.75;;;19.85;;
48375;SDS011;34178;50.904;11.560;2022-12-07T16:39:23;40.30;;;18.80;;
48375;SDS011;34178;50.904;11.560;2022-12-07T16:41:49;46.13;;;21.85;;
48375;SDS011;34178;50.904;11.560;2022-12-07T16:44:15;44.83;;;22.70;;
48375;SDS011;34178;50.904;11.560;2022-12-07T16:46:41;41.28;;;16.35;;
48375;SDS011;34178;50.904;11.560;2022-12-07T16:49:09;40.00;;;20.20;;
48375;SDS011;34178;50.904;11.560;2022-12-07T16:51:40;40.17;;;18.83;;
48375;SDS011;34178;50.904;11.560;2022-12-07T16:54:09;44.60;;;19.23;;
48375;SDS011;34178;50.904;11.560;2022-12-07T16:56:35;39.97;;;19.00;;
48375;SDS011;34178;50.904;11.560;2022-12-07T16:59:01;43.38;;;23.13;;
48375;SDS011;34178;50.904;11.560;2022-12-07T17:01:27;38.58;;;19.60;;
48375;SDS011;34178;50.904;11.560;2022-12-07T17:03:53;35.67;;;17.45;;
48375;SDS011;34178;50.904;11.560;2022-12-07T17:06:20;31.40;;;15.25;;